Weather History for Athens, OH

Change the Weather History Date:

Monday, November 18, 2013

  Actual Average (KPKB) Record (KPKB)
Temperature  
Mean Temperature 46 °F 44 °F  
Max Temperature 55 °F 54 °F 81 °F (1921)
Min Temperature 37 °F 35 °F 14 °F (1959)
Degree Days  
Heating Degree Days 18 21  
Month to date heating degree days 316  
Cooling Degree Days 0 0  
Month to date cooling degree days 0  
Moisture  
Dew Point 33 °F    
Average Humidity 58    
Maximum Humidity 75    
Minimum Humidity 37    
Precipitation  
Precipitation 0.00 in 0.12 in 1.64 in (1957)
Month to date precipitation 1.97  
Sea Level Pressure  
Sea Level Pressure 29.96 in    
Wind  
Wind Speed 11 mph (West)    
Max Wind Speed 22 mph    
Max Gust Speed 30 mph    
Visibility 10 miles    
Events      
T = Trace of Precipitation, MM = Missing Value Source: NWS Daily Summary

Daily Weather History Graph

Daily Weather History Graph

Search for Another Location

Airport:

Trip Planner

Search our weather history database for the weather conditions in past years. The results will help you decide how hot, cold, wet, or windy it might be!

Date:

Astronomy

Nov. 18, 2013 Rise Set
Actual Time 7:15 AM EST 5:12 PM EST
Civil Twilight 6:47 AM EST 5:40 PM EST
Nautical Twilight 6:14 AM EST 6:13 PM EST
Astronomical Twilight 5:42 AM EST 6:45 PM EST
Moon 6:13 PM EST (11/18) 8:03 AM EST (11/18)
Length of Visible Light 10h 53m
Length of Day
9h 56m
Full, 99% of the Moon is Illuminated
Nov 18
Full
Nov 25
Last Quarter
Dec 2
New
Dec 9
First Quarter
Dec 17
Full

Hourly Weather History & Observations

Time (EST) Temp. Windchill Dew Point Humidity Pressure Visibility Wind Dir Wind Speed Gust Speed Precip Events Conditions
12:15 AM 54.0 °F - 37.9 °F 55% 29.77 in 10.0 mi West 13.8 mph 19.6 mph N/A   Clear
12:35 AM 52.5 °F - 37.6 °F 57% 29.79 in 10.0 mi West 12.7 mph - N/A   Clear
12:55 AM 53.2 °F - 36.5 °F 53% 29.80 in 10.0 mi West 10.4 mph 17.3 mph N/A   Clear
1:15 AM 51.4 °F - 36.9 °F 58% 29.80 in 10.0 mi West 8.1 mph - N/A   Clear
1:35 AM 48.4 °F - 37.2 °F 65% 29.81 in 10.0 mi WSW 8.1 mph - N/A   Clear
1:55 AM 49.6 °F - 37.2 °F 62% 29.82 in 10.0 mi WSW 8.1 mph 16.1 mph N/A   Clear
2:15 AM 49.8 °F - 36.3 °F 60% 29.82 in 10.0 mi SW 4.6 mph - N/A   Clear
2:35 AM 47.1 °F - 36.5 °F 67% 29.83 in 10.0 mi WSW 4.6 mph - N/A   Clear
2:55 AM 47.5 °F - 36.9 °F 67% 29.84 in 10.0 mi SW 8.1 mph - N/A   Clear
3:15 AM 48.2 °F - 36.1 °F 63% 29.84 in 10.0 mi SW 5.8 mph - N/A   Clear
3:35 AM 47.3 °F - 36.5 °F 66% 29.84 in 10.0 mi WSW 6.9 mph - N/A   Clear
3:55 AM 47.5 °F - 35.8 °F 64% 29.85 in 10.0 mi SW 8.1 mph - N/A   Clear
4:15 AM 48.6 °F - 35.6 °F 61% 29.85 in 10.0 mi SW 11.5 mph 17.3 mph N/A   Clear
4:35 AM 47.5 °F - 35.6 °F 63% 29.86 in 10.0 mi SW 6.9 mph - N/A   Clear
4:55 AM 47.1 °F - 35.6 °F 64% 29.88 in 10.0 mi SW 8.1 mph - N/A   Clear
5:15 AM 46.4 °F 41.1 °F 36.0 °F 67% 29.88 in 10.0 mi WSW 11.5 mph 16.1 mph N/A   Clear
5:35 AM 46.4 °F 42.4 °F 36.0 °F 67% 29.89 in 10.0 mi WSW 8.1 mph - N/A   Clear
5:55 AM 45.1 °F 39.5 °F 35.8 °F 70% 29.90 in 10.0 mi WSW 11.5 mph - N/A   Clear
6:15 AM 46.0 °F 41.4 °F 35.8 °F 67% 29.90 in 10.0 mi West 9.2 mph 18.4 mph N/A   Clear
6:35 AM 43.3 °F 39.2 °F 35.6 °F 74% 29.90 in 10.0 mi WSW 6.9 mph - N/A   Clear
6:55 AM 43.7 °F 39.1 °F 36.1 °F 75% 29.90 in 10.0 mi WSW 8.1 mph - N/A   Clear
7:15 AM 44.1 °F 39.0 °F 35.8 °F 73% 29.91 in 10.0 mi WSW 9.2 mph - N/A   Clear
7:35 AM 43.9 °F 39.9 °F 35.8 °F 73% 29.91 in 10.0 mi SW 6.9 mph - N/A   Clear
7:55 AM 45.3 °F 41.6 °F 36.0 °F 70% 29.92 in 10.0 mi WSW 6.9 mph - N/A   Clear
8:15 AM 45.5 °F 40.8 °F 36.7 °F 71% 29.92 in 10.0 mi WSW 9.2 mph - N/A   Clear
8:35 AM 46.4 °F 41.5 °F 36.7 °F 69% 29.93 in 10.0 mi West 10.4 mph 19.6 mph N/A   Clear
8:55 AM 46.9 °F - 36.1 °F 66% 29.93 in 10.0 mi West 17.3 mph 20.7 mph N/A   Clear
9:15 AM 47.7 °F - 36.3 °F 65% 29.93 in 10.0 mi West 15.0 mph 23.0 mph N/A   Clear
9:35 AM 48.4 °F - 36.7 °F 64% 29.93 in 10.0 mi West 13.8 mph 21.9 mph N/A   Clear
9:55 AM 49.1 °F - 36.9 °F 63% 29.93 in 10.0 mi WSW 10.4 mph 13.8 mph N/A   Clear
10:15 AM 50.0 °F - 36.0 °F 59% 29.93 in 10.0 mi WSW 13.8 mph 20.7 mph N/A   Clear
10:35 AM 50.9 °F - 36.1 °F 57% 29.93 in 10.0 mi WSW 12.7 mph 19.6 mph N/A   Clear
10:55 AM 51.8 °F - 34.9 °F 53% 29.93 in 10.0 mi West 17.3 mph 23.0 mph N/A   Clear
11:15 AM 52.9 °F - 35.8 °F 52% 29.93 in 10.0 mi WSW 15.0 mph - N/A   Clear
11:35 AM 53.6 °F - 34.9 °F 49% 29.92 in 10.0 mi WSW 11.5 mph 17.3 mph N/A   Clear
11:55 AM 53.8 °F - 33.8 °F 47% 29.92 in 10.0 mi West 13.8 mph 28.8 mph N/A   Clear
12:15 PM 54.1 °F - 33.8 °F 46% 29.92 in 10.0 mi WSW 15.0 mph 26.5 mph N/A   Clear
12:35 PM 54.1 °F - 34.2 °F 47% 29.92 in 10.0 mi WSW 21.9 mph 27.6 mph N/A   Scattered Clouds
12:55 PM 54.3 °F - 34.3 °F 47% 29.92 in 10.0 mi West 13.8 mph 23.0 mph N/A   Scattered Clouds
1:15 PM 55.8 °F - 34.9 °F 45% 29.92 in 10.0 mi West 13.8 mph 23.0 mph N/A   Scattered Clouds
1:35 PM 54.7 °F - 32.5 °F 43% 29.93 in 10.0 mi West 18.4 mph 25.3 mph N/A   Scattered Clouds
1:55 PM 54.0 °F - 30.0 °F 40% 29.94 in 10.0 mi West 21.9 mph 29.9 mph N/A   Clear
2:15 PM 53.6 °F - 29.7 °F 40% 29.94 in 10.0 mi West 21.9 mph 28.8 mph N/A   Clear
2:35 PM 53.8 °F - 29.7 °F 40% 29.95 in 10.0 mi West 16.1 mph 29.9 mph N/A   Clear
2:55 PM 53.8 °F - 28.6 °F 38% 29.95 in 10.0 mi West 17.3 mph 27.6 mph N/A   Clear
3:15 PM 53.6 °F - 27.7 °F 37% 29.96 in 10.0 mi West 17.3 mph 27.6 mph N/A   Clear
3:35 PM 52.7 °F - 28.4 °F 39% 29.98 in 10.0 mi West 19.6 mph 28.8 mph N/A   Clear
3:55 PM 52.3 °F - 29.3 °F 41% 29.98 in 10.0 mi West 13.8 mph 25.3 mph N/A   Scattered Clouds
4:15 PM 51.8 °F - 28.6 °F 41% 29.99 in 10.0 mi WNW 15.0 mph 27.6 mph N/A   Scattered Clouds
4:35 PM 50.5 °F - 28.4 °F 42% 30.00 in 10.0 mi West 15.0 mph 24.2 mph N/A   Clear
4:55 PM 49.3 °F - 28.0 °F 44% 30.02 in 10.0 mi West 12.7 mph - N/A   Clear
5:15 PM 48.0 °F - 29.1 °F 48% 30.02 in 10.0 mi West 11.5 mph - N/A   Clear
5:35 PM 47.1 °F - 29.5 °F 50% 30.03 in 10.0 mi West 6.9 mph - N/A   Clear
5:55 PM 46.6 °F - 29.5 °F 51% 30.04 in 10.0 mi West 10.4 mph - N/A   Clear
6:15 PM 46.0 °F 41.4 °F 29.7 °F 53% 30.05 in 10.0 mi West 9.2 mph - N/A   Clear
6:35 PM 45.9 °F 41.2 °F 29.5 °F 53% 30.06 in 10.0 mi West 9.2 mph - N/A   Clear
6:55 PM 45.5 °F 41.8 °F 29.7 °F 54% 30.06 in 10.0 mi West 6.9 mph - N/A   Scattered Clouds
7:15 PM 45.5 °F 40.3 °F 29.3 °F 53% 30.07 in 10.0 mi West 10.4 mph - N/A   Scattered Clouds
7:35 PM 45.1 °F 39.9 °F 29.1 °F 54% 30.07 in 10.0 mi WNW 10.4 mph - N/A   Clear
7:55 PM 44.6 °F 39.2 °F 29.3 °F 55% 30.08 in 10.0 mi WNW 10.4 mph - N/A   Clear
8:15 PM 42.4 °F 39.6 °F 29.3 °F 60% 30.09 in 10.0 mi West 4.6 mph - N/A   Clear
8:35 PM 41.9 °F 36.3 °F 29.3 °F 61% 30.09 in 10.0 mi WNW 9.2 mph - N/A   Clear
8:55 PM 42.3 °F 38.6 °F 29.1 °F 60% 30.10 in 10.0 mi WNW 5.8 mph - N/A   Clear
9:15 PM 41.2 °F 36.0 °F 29.1 °F 62% 30.11 in 10.0 mi WNW 8.1 mph - N/A   Clear
9:35 PM 40.8 °F 36.9 °F 28.4 °F 61% 30.12 in 10.0 mi WNW 5.8 mph - N/A   Clear
9:55 PM 41.0 °F 35.8 °F 29.3 °F 63% 30.12 in 10.0 mi WNW 8.1 mph - N/A   Clear
10:15 PM 40.8 °F 36.2 °F 29.5 °F 64% 30.13 in 10.0 mi WNW 6.9 mph - N/A   Scattered Clouds
10:35 PM 40.3 °F 34.9 °F 29.3 °F 65% 30.13 in 10.0 mi WNW 8.1 mph - N/A   Clear
10:55 PM 39.9 °F 35.8 °F 29.3 °F 66% 30.14 in 10.0 mi WNW 5.8 mph - N/A   Clear
11:15 PM 38.7 °F 35.2 °F 29.3 °F 69% 30.14 in 10.0 mi NW 4.6 mph - N/A   Clear
11:35 PM 38.3 °F 33.9 °F 29.3 °F 70% 30.14 in 10.0 mi NW 5.8 mph - N/A   Clear
11:55 PM 37.6 °F - 29.3 °F 72% 30.14 in 10.0 mi Calm Calm - N/A   Clear